sensor_id;sensor_type;location;lat;lon;timestamp;pressure;altitude;pressure_sealevel;temperature;humidity
20145;BME280;10233;50.814;6.590;2022-12-07T00:00:42;100422.13;;;5.57;100.00
20145;BME280;10233;50.814;6.590;2022-12-07T00:01:43;100417.16;;;5.62;100.00
20145;BME280;10233;50.814;6.590;2022-12-07T00:02:44;100423.44;;;5.53;100.00
20145;BME280;10233;50.814;6.590;2022-12-07T00:03:46;100416.16;;;5.63;100.00
20145;BME280;10233;50.814;6.590;2022-12-07T00:04:48;100417.84;;;5.56;100.00
20145;BME280;10233;50.814;6.590;2022-12-07T00:05:49;100420.47;;;5.48;100.00
20145;BME280;10233;50.814;6.590;2022-12-07T00:06:52;100418.81;;;5.47;100.00
20145;BME280;10233;50.814;6.590;2022-12-07T00:07:53;100417.50;;;5.43;100.00
20145;BME280;10233;50.814;6.590;2022-12-07T00:08:53;100422.63;;;5.45;100.00
20145;BME280;10233;50.814;6.590;2022-12-07T00:09:53;100422.44;;;5.54;100.00
20145;BME280;10233;50.814;6.590;2022-12-07T00:10:54;100419.47;;;5.57;100.00
20145;BME280;10233;50.814;6.590;2022-12-07T00:11:54;100410.56;;;5.58;100.00
20145;BME280;10233;50.814;6.590;2022-12-07T00:12:55;100407.28;;;5.56;100.00
20145;BME280;10233;50.814;6.590;2022-12-07T00:14:01;100419.16;;;5.52;100.00
20145;BME280;10233;50.814;6.590;2022-12-07T00:15:02;100414.53;;;5.62;100.00
20145;BME280;10233;50.814;6.590;2022-12-07T00:16:07;100404.66;;;5.56;100.00
20145;BME280;10233;50.814;6.590;2022-12-07T00:17:08;100405.94;;;5.60;100.00
20145;BME280;10233;50.814;6.590;2022-12-07T00:18:08;100412.41;;;5.50;100.00
20145;BME280;10233;50.814;6.590;2022-12-07T00:19:10;100406.28;;;5.49;100.00
20145;BME280;10233;50.814;6.590;2022-12-07T00:20:11;100412.41;;;5.50;100.00
20145;BME280;10233;50.814;6.590;2022-12-07T00:21:17;100410.56;;;5.58;100.00
20145;BME280;10233;50.814;6.590;2022-12-07T00:22:18;100410.56;;;5.50;100.00
20145;BME280;10233;50.814;6.590;2022-12-07T00:23:18;100409.91;;;5.48;100.00
20145;BME280;10233;50.814;6.590;2022-12-07T00:24:18;100414.19;;;5.49;100.00
20145;BME280;10233;50.814;6.590;2022-12-07T00:25:19;100406.59;;;5.46;100.00
20145;BME280;10233;50.814;6.590;2022-12-07T00:26:25;100410.25;;;5.53;100.00
20145;BME280;10233;50.814;6.590;2022-12-07T00:27:27;100406.63;;;5.62;100.00
20145;BME280;10233;50.814;6.590;2022-12-07T00:28:27;100407.63;;;5.61;100.00
20145;BME280;10233;50.814;6.590;2022-12-07T00:29:27;100405.78;;;5.62;100.00
20145;BME280;10233;50.814;6.590;2022-12-07T00:30:28;100403.81;;;5.56;100.00
20145;BME280;10233;50.814;6.590;2022-12-07T00:31:33;100397.72;;;5.55;100.00
20145;BME280;10233;50.814;6.590;2022-12-07T00:32:35;100410.41;;;5.52;100.00
20145;BME280;10233;50.814;6.590;2022-12-07T00:33:36;100412.91;;;5.61;100.00
20145;BME280;10233;50.814;6.590;2022-12-07T00:34:37;100396.06;;;5.62;100.00
20145;BME280;10233;50.814;6.590;2022-12-07T00:35:37;100399.84;;;5.68;100.00
20145;BME280;10233;50.814;6.590;2022-12-07T00:36:37;100407.25;;;5.64;100.00
20145;BME280;10233;50.814;6.590;2022-12-07T00:37:38;100406.78;;;5.69;100.00
20145;BME280;10233;50.814;6.590;2022-12-07T00:38:39;100404.97;;;5.69;100.00
20145;BME280;10233;50.814;6.590;2022-12-07T00:39:40;100403.16;;;5.70;100.00
20145;BME280;10233;50.814;6.590;2022-12-07T00:40:40;100399.03;;;5.67;100.00
20145;BME280;10233;50.814;6.590;2022-12-07T00:41:41;100399.53;;;5.71;100.00
20145;BME280;10233;50.814;6.590;2022-12-07T00:42:41;100397.88;;;5.62;100.00
20145;BME280;10233;50.814;6.590;2022-12-07T00:43:43;100398.19;;;5.67;100.00
20145;BME280;10233;50.814;6.590;2022-12-07T00:44:44;100394.59;;;5.60;100.00
20145;BME280;10233;50.814;6.590;2022-12-07T00:45:44;100389.81;;;5.71;100.00
20145;BME280;10233;50.814;6.590;2022-12-07T00:46:45;100388.97;;;5.71;100.00
20145;BME280;10233;50.814;6.590;2022-12-07T00:47:46;100393.94;;;5.66;100.00
20145;BME280;10233;50.814;6.590;2022-12-07T00:48:47;100391.13;;;5.59;100.00
20145;BME280;10233;50.814;6.590;2022-12-07T00:49:48;100394.41;;;5.69;100.00
20145;BME280;10233;50.814;6.590;2022-12-07T00:50:49;100390.13;;;5.60;100.00
20145;BME280;10233;50.814;6.590;2022-12-07T00:51:49;100383.53;;;5.64;100.00
20145;BME280;10233;50.814;6.590;2022-12-07T00:52:50;100386.50;;;5.69;100.00
20145;BME280;10233;50.814;6.590;2022-12-07T00:53:51;100393.41;;;5.70;100.00
20145;BME280;10233;50.814;6.590;2022-12-07T00:54:51;100394.72;;;5.74;100.00
20145;BME280;10233;50.814;6.590;2022-12-07T00:55:52;100387.16;;;5.87;100.00
20145;BME280;10233;50.814;6.590;2022-12-07T00:56:53;100388.16;;;5.86;100.00
20145;BME280;10233;50.814;6.590;2022-12-07T00:57:53;100382.56;;;5.81;100.00
20145;BME280;10233;50.814;6.590;2022-12-07T00:58:56;100384.53;;;5.87;100.00
20145;BME280;10233;50.814;6.590;2022-12-07T00:59:56;100386.34;;;5.87;100.00
20145;BME280;10233;50.814;6.590;2022-12-07T01:01:00;100383.69;;;5.95;100.00
20145;BME280;10233;50.814;6.590;2022-12-07T01:02:02;100380.41;;;5.85;100.00
20145;BME280;10233;50.814;6.590;2022-12-07T01:03:03;100390.59;;;5.88;100.00
20145;BME280;10233;50.814;6.590;2022-12-07T01:04:04;100380.56;;;5.83;100.00
20145;BME280;10233;50.814;6.590;2022-12-07T01:05:06;100384.16;;;5.90;100.00
20145;BME280;10233;50.814;6.590;2022-12-07T01:06:06;100383.38;;;5.90;100.00
20145;BME280;10233;50.814;6.590;2022-12-07T01:07:07;100389.47;;;5.82;100.00
20145;BME280;10233;50.814;6.590;2022-12-07T01:08:08;100383.84;;;5.93;100.00
20145;BME280;10233;50.814;6.590;2022-12-07T01:09:08;100382.22;;;5.92;100.00
20145;BME280;10233;50.814;6.590;2022-12-07T01:10:09;100380.41;;;5.85;100.00
20145;BME280;10233;50.814;6.590;2022-12-07T01:11:13;100387.81;;;5.89;100.00
20145;BME280;10233;50.814;6.590;2022-12-07T01:12:14;100388.50;;;5.83;100.00
20145;BME280;10233;50.814;6.590;2022-12-07T01:13:15;100386.84;;;5.82;100.00
20145;BME280;10233;50.814;6.590;2022-12-07T01:14:16;100390.47;;;5.81;100.00
20145;BME280;10233;50.814;6.590;2022-12-07T01:15:16;100393.25;;;5.88;100.00
20145;BME280;10233;50.814;6.590;2022-12-07T01:16:17;100397.03;;;5.85;100.00
20145;BME280;10233;50.814;6.590;2022-12-07T01:17:18;100394.06;;;5.88;100.00
20145;BME280;10233;50.814;6.590;2022-12-07T01:18:19;100390.97;;;5.85;100.00
20145;BME280;10233;50.814;6.590;2022-12-07T01:19:19;100396.56;;;5.82;100.00
20145;BME280;10233;50.814;6.590;2022-12-07T01:20:19;100398.72;;;5.86;100.00
20145;BME280;10233;50.814;6.590;2022-12-07T01:21:25;100394.75;;;5.82;100.00
20145;BME280;10233;50.814;6.590;2022-12-07T01:22:28;100404.00;;;5.86;100.00
20145;BME280;10233;50.814;6.590;2022-12-07T01:23:29;100403.47;;;5.91;100.00
20145;BME280;10233;50.814;6.590;2022-12-07T01:24:29;100400.50;;;5.94;100.00
20145;BME280;10233;50.814;6.590;2022-12-07T01:25:30;100395.06;;;5.87;100.00
20145;BME280;10233;50.814;6.590;2022-12-07T01:26:31;100394.06;;;5.96;100.00
20145;BME280;10233;50.814;6.590;2022-12-07T01:27:33;100398.66;;;6.02;100.00
20145;BME280;10233;50.814;6.590;2022-12-07T01:28:34;100395.69;;;6.05;100.00
20145;BME280;10233;50.814;6.590;2022-12-07T01:29:35;100389.75;;;6.03;100.00
20145;BME280;10233;50.814;6.590;2022-12-07T01:30:35;100399.50;;;6.03;100.00
20145;BME280;10233;50.814;6.590;2022-12-07T01:31:37;100394.03;;;6.04;100.00
20145;BME280;10233;50.814;6.590;2022-12-07T01:32:37;100392.88;;;6.07;100.00
20145;BME280;10233;50.814;6.590;2022-12-07T01:33:38;100397.50;;;6.05;100.00
20145;BME280;10233;50.814;6.590;2022-12-07T01:34:39;100394.88;;;6.05;100.00
20145;BME280;10233;50.814;6.590;2022-12-07T01:35:40;100397.34;;;5.90;100.00
20145;BME280;10233;50.814;6.590;2022-12-07T01:36:40;100391.91;;;5.92;100.00
20145;BME280;10233;50.814;6.590;2022-12-07T01:37:41;100391.28;;;5.90;100.00
20145;BME280;10233;50.814;6.590;2022-12-07T01:38:41;100394.41;;;5.93;100.00
20145;BME280;10233;50.814;6.590;2022-12-07T01:39:42;100397.03;;;5.93;100.00
20145;BME280;10233;50.814;6.590;2022-12-07T01:40:42;100394.72;;;5.90;100.00
20145;BME280;10233;50.814;6.590;2022-12-07T01:41:43;100398.50;;;5.96;100.00
20145;BME280;10233;50.814;6.590;2022-12-07T01:42:44;100397.88;;;5.94;100.00
20145;BME280;10233;50.814;6.590;2022-12-07T01:44:17;100393.72;;;5.99;100.00
20145;BME280;10233;50.814;6.590;2022-12-07T01:46:18;100394.56;;;6.00;100.00
20145;BME280;10233;50.814;6.590;2022-12-07T01:47:19;100393.56;;;6.01;100.00
20145;BME280;10233;50.814;6.590;2022-12-07T01:48:26;100393.44;;;5.86;100.00
20145;BME280;10233;50.814;6.590;2022-12-07T01:49:34;100382.22;;;5.92;100.00
20145;BME280;10233;50.814;6.590;2022-12-07T01:50:36;100383.84;;;5.77;100.00
20145;BME280;10233;50.814;6.590;2022-12-07T01:51:40;100392.13;;;5.82;100.00
20145;BME280;10233;50.814;6.590;2022-12-07T01:52:43;100390.13;;;5.84;100.00
20145;BME280;10233;50.814;6.590;2022-12-07T01:53:45;100388.81;;;5.88;100.00
20145;BME280;10233;50.814;6.590;2022-12-07T01:54:47;100389.97;;;5.94;100.00
20145;BME280;10233;50.814;6.590;2022-12-07T01:55:51;100387.16;;;5.95;100.00
20145;BME280;10233;50.814;6.590;2022-12-07T01:56:53;100387.81;;;5.89;100.00
20145;BME280;10233;50.814;6.590;2022-12-07T01:57:55;100393.09;;;5.89;100.00
20145;BME280;10233;50.814;6.590;2022-12-07T01:58:57;100386.00;;;5.90;100.00
20145;BME280;10233;50.814;6.590;2022-12-07T01:59:59;100385.53;;;5.86;100.00
20145;BME280;10233;50.814;6.590;2022-12-07T02:01:13;100390.44;;;5.89;100.00
20145;BME280;10233;50.814;6.590;2022-12-07T02:02:19;100378.41;;;5.87;100.00
20145;BME280;10233;50.814;6.590;2022-12-07T02:03:24;100395.06;;;5.79;100.00
20145;BME280;10233;50.814;6.590;2022-12-07T02:04:27;100379.56;;;5.92;100.00
20145;BME280;10233;50.814;6.590;2022-12-07T02:05:28;100377.25;;;5.89;100.00
20145;BME280;10233;50.814;6.590;2022-12-07T02:06:29;100370.34;;;5.88;100.00
20145;BME280;10233;50.814;6.590;2022-12-07T02:07:31;100377.59;;;5.86;100.00
20145;BME280;10233;50.814;6.590;2022-12-07T02:08:33;100375.28;;;5.91;100.00
20145;BME280;10233;50.814;6.590;2022-12-07T02:09:33;100376.78;;;5.94;100.00
20145;BME280;10233;50.814;6.590;2022-12-07T02:10:34;100376.09;;;5.92;100.00
20145;BME280;10233;50.814;6.590;2022-12-07T02:11:34;100377.78;;;5.93;100.00
20145;BME280;10233;50.814;6.590;2022-12-07T02:12:35;100374.97;;;5.86;100.00
20145;BME280;10233;50.814;6.590;2022-12-07T02:13:38;100378.09;;;5.82;100.00
20145;BME280;10233;50.814;6.590;2022-12-07T02:14:40;100377.28;;;5.81;100.00
20145;BME280;10233;50.814;6.590;2022-12-07T02:24:12;100373.94;;;5.79;100.00
20145;BME280;10233;50.814;6.590;2022-12-07T02:28:26;100376.59;;;5.79;100.00
20145;BME280;10233;50.814;6.590;2022-12-07T02:29:37;100371.31;;;5.79;100.00
20145;BME280;10233;50.814;6.590;2022-12-07T02:30:45;100373.94;;;5.79;100.00
20145;BME280;10233;50.814;6.590;2022-12-07T02:32:13;100371.34;;;5.87;100.00
20145;BME280;10233;50.814;6.590;2022-12-07T02:33:37;100364.75;;;5.83;100.00
20145;BME280;10233;50.814;6.590;2022-12-07T02:36:08;100370.34;;;5.72;100.00
20145;BME280;10233;50.814;6.590;2022-12-07T02:37:27;100376.63;;;5.63;100.00
20145;BME280;10233;50.814;6.590;2022-12-07T02:39:00;100367.34;;;5.75;100.00
20145;BME280;10233;50.814;6.590;2022-12-07T02:40:11;100367.72;;;5.64;100.00
20145;BME280;10233;50.814;6.590;2022-12-07T02:41:38;100366.41;;;5.60;100.00
20145;BME280;10233;50.814;6.590;2022-12-07T02:42:44;100367.41;;;5.67;100.00
20145;BME280;10233;50.814;6.590;2022-12-07T02:43:50;100370.19;;;5.66;100.00
20145;BME280;10233;50.814;6.590;2022-12-07T02:44:52;100367.25;;;5.61;100.00
20145;BME280;10233;50.814;6.590;2022-12-07T02:45:57;100366.72;;;5.65;100.00
20145;BME280;10233;50.814;6.590;2022-12-07T02:47:06;100369.03;;;5.68;100.00
20145;BME280;10233;50.814;6.590;2022-12-07T02:48:10;100366.25;;;5.62;100.00
20145;BME280;10233;50.814;6.590;2022-12-07T02:49:12;100364.59;;;5.69;100.00
20145;BME280;10233;50.814;6.590;2022-12-07T02:50:12;100371.19;;;5.65;100.00
20145;BME280;10233;50.814;6.590;2022-12-07T02:51:13;100366.72;;;5.65;100.00
20145;BME280;10233;50.814;6.590;2022-12-07T02:52:13;100368.72;;;5.63;100.00
20145;BME280;10233;50.814;6.590;2022-12-07T02:54:37;100369.03;;;5.68;100.00
20145;BME280;10233;50.814;6.590;2022-12-07T02:55:41;100369.84;;;5.77;100.00
20145;BME280;10233;50.814;6.590;2022-12-07T02:57:59;100369.03;;;5.84;100.00
20145;BME280;10233;50.814;6.590;2022-12-07T03:00:59;100366.56;;;5.83;100.00
20145;BME280;10233;50.814;6.590;2022-12-07T03:02:21;100363.75;;;5.76;100.00
20145;BME280;10233;50.814;6.590;2022-12-07T03:03:26;100365.75;;;5.82;100.00
20145;BME280;10233;50.814;6.590;2022-12-07T03:06:01;100361.44;;;5.65;100.00
20145;BME280;10233;50.814;6.590;2022-12-07T03:07:29;100366.91;;;5.64;100.00
20145;BME280;10233;50.814;6.590;2022-12-07T03:10:03;100365.72;;;5.74;100.00
20145;BME280;10233;50.814;6.590;2022-12-07T03:11:14;100370.84;;;5.76;100.00
20145;BME280;10233;50.814;6.590;2022-12-07T03:12:24;100359.81;;;5.80;100.00
20145;BME280;10233;50.814;6.590;2022-12-07T03:15:05;100363.59;;;5.70;100.00
20145;BME280;10233;50.814;6.590;2022-12-07T03:17:12;100366.03;;;5.79;100.00
20145;BME280;10233;50.814;6.590;2022-12-07T03:18:16;100365.75;;;5.66;100.00
20145;BME280;10233;50.814;6.590;2022-12-07T03:19:20;100366.56;;;5.67;100.00
20145;BME280;10233;50.814;6.590;2022-12-07T03:20:22;100369.19;;;5.75;100.00
20145;BME280;10233;50.814;6.590;2022-12-07T03:21:34;100371.50;;;5.70;100.00
20145;BME280;10233;50.814;6.590;2022-12-07T03:22:38;100374.16;;;5.70;100.00
20145;BME280;10233;50.814;6.590;2022-12-07T03:23:44;100371.66;;;5.76;100.00
20145;BME280;10233;50.814;6.590;2022-12-07T03:24:51;100374.94;;;5.78;100.00
20145;BME280;10233;50.814;6.590;2022-12-07T03:25:56;100366.19;;;5.78;100.00
20145;BME280;10233;50.814;6.590;2022-12-07T03:27:07;100374.66;;;5.81;100.00
20145;BME280;10233;50.814;6.590;2022-12-07T03:28:11;100368.84;;;5.78;100.00
20145;BME280;10233;50.814;6.590;2022-12-07T03:29:22;100366.41;;;5.76;100.00
20145;BME280;10233;50.814;6.590;2022-12-07T03:30:30;100367.88;;;5.71;100.00
20145;BME280;10233;50.814;6.590;2022-12-07T03:31:36;100366.88;;;5.72;100.00
20145;BME280;10233;50.814;6.590;2022-12-07T03:32:53;100364.41;;;5.78;100.00
20145;BME280;10233;50.814;6.590;2022-12-07T03:34:13;100370.66;;;5.85;100.00
20145;BME280;10233;50.814;6.590;2022-12-07T03:35:28;100368.38;;;5.82;100.00
20145;BME280;10233;50.814;6.590;2022-12-07T03:37:00;100364.41;;;5.78;100.00
20145;BME280;10233;50.814;6.590;2022-12-07T03:38:05;100371.19;;;5.81;100.00
20145;BME280;10233;50.814;6.590;2022-12-07T03:40:23;100373.16;;;5.79;100.00
20145;BME280;10233;50.814;6.590;2022-12-07T03:41:30;100367.06;;;5.86;100.00
20145;BME280;10233;50.814;6.590;2022-12-07T03:42:32;100363.28;;;5.81;100.00
20145;BME280;10233;50.814;6.590;2022-12-07T03:43:34;100368.19;;;5.76;100.00
20145;BME280;10233;50.814;6.590;2022-12-07T03:44:36;100366.88;;;5.80;100.00
20145;BME280;10233;50.814;6.590;2022-12-07T03:45:40;100373.50;;;5.84;100.00
20145;BME280;10233;50.814;6.590;2022-12-07T03:48:20;100366.75;;;5.81;100.00
20145;BME280;10233;50.814;6.590;2022-12-07T03:49:53;100365.75;;;5.82;100.00
20145;BME280;10233;50.814;6.590;2022-12-07T03:52:47;100365.59;;;5.84;100.00
20145;BME280;10233;50.814;6.590;2022-12-07T03:54:02;100360.47;;;5.82;100.00
20145;BME280;10233;50.814;6.590;2022-12-07T03:55:16;100369.66;;;5.78;100.00
20145;BME280;10233;50.814;6.590;2022-12-07T03:56:20;100359.28;;;5.77;100.00
20145;BME280;10233;50.814;6.590;2022-12-07T03:57:22;100365.75;;;5.66;100.00
20145;BME280;10233;50.814;6.590;2022-12-07T03:58:25;100363.09;;;5.74;100.00
20145;BME280;10233;50.814;6.590;2022-12-07T03:59:26;100366.88;;;5.72;100.00
20145;BME280;10233;50.814;6.590;2022-12-07T04:00:27;100366.56;;;5.67;100.00
20145;BME280;10233;50.814;6.590;2022-12-07T04:01:27;100365.88;;;5.73;100.00
20145;BME280;10233;50.814;6.590;2022-12-07T04:02:28;100357.53;;;5.61;100.00
20145;BME280;10233;50.814;6.590;2022-12-07T04:03:29;100365.09;;;5.64;100.00
20145;BME280;10233;50.814;6.590;2022-12-07T04:04:30;100363.13;;;5.66;100.00
20145;BME280;10233;50.814;6.590;2022-12-07T04:05:31;100363.97;;;5.59;100.00
20145;BME280;10233;50.814;6.590;2022-12-07T04:06:31;100357.31;;;5.71;100.00
20145;BME280;10233;50.814;6.590;2022-12-07T04:07:32;100359.16;;;5.62;100.00
20145;BME280;10233;50.814;6.590;2022-12-07T04:08:32;100354.69;;;5.63;100.00
20145;BME280;10233;50.814;6.590;2022-12-07T04:09:33;100360.47;;;5.66;100.00
20145;BME280;10233;50.814;6.590;2022-12-07T04:10:33;100356.50;;;5.70;100.00
20145;BME280;10233;50.814;6.590;2022-12-07T04:11:34;100351.22;;;5.70;100.00
20145;BME280;10233;50.814;6.590;2022-12-07T04:12:34;100353.84;;;5.70;100.00
20145;BME280;10233;50.814;6.590;2022-12-07T04:13:34;100355.84;;;5.68;100.00
20145;BME280;10233;50.814;6.590;2022-12-07T04:14:55;100354.53;;;5.64;100.00
20145;BME280;10233;50.814;6.590;2022-12-07T04:15:55;100360.47;;;5.66;100.00
20145;BME280;10233;50.814;6.590;2022-12-07T04:16:57;100363.13;;;5.66;100.00
20145;BME280;10233;50.814;6.590;2022-12-07T04:17:58;100364.28;;;5.64;100.00
20145;BME280;10233;50.814;6.590;2022-12-07T04:18:58;100364.41;;;5.70;100.00
20145;BME280;10233;50.814;6.590;2022-12-07T04:19:59;100359.31;;;5.61;100.00
20145;BME280;10233;50.814;6.590;2022-12-07T04:20:59;100357.16;;;5.64;100.00
20145;BME280;10233;50.814;6.590;2022-12-07T04:22:01;100355.38;;;5.65;100.00
20145;BME280;10233;50.814;6.590;2022-12-07T04:23:02;100358.00;;;5.57;100.00
20145;BME280;10233;50.814;6.590;2022-12-07T04:24:03;100361.81;;;5.62;100.00
20145;BME280;10233;50.814;6.590;2022-12-07T04:25:04;100355.53;;;5.63;100.00
20145;BME280;10233;50.814;6.590;2022-12-07T04:26:05;100351.09;;;5.48;100.00
20145;BME280;10233;50.814;6.590;2022-12-07T04:27:05;100354.09;;;5.45;100.00
20145;BME280;10233;50.814;6.590;2022-12-07T04:28:06;100359.53;;;5.43;100.00
20145;BME280;10233;50.814;6.590;2022-12-07T04:29:06;100360.66;;;5.57;100.00
20145;BME280;10233;50.814;6.590;2022-12-07T04:30:07;100356.03;;;5.51;100.00
20145;BME280;10233;50.814;6.590;2022-12-07T04:31:08;100353.91;;;5.46;100.00
20145;BME280;10233;50.814;6.590;2022-12-07T04:32:09;100355.25;;;5.42;100.00
20145;BME280;10233;50.814;6.590;2022-12-07T04:33:11;100356.84;;;5.51;100.00
20145;BME280;10233;50.814;6.590;2022-12-07T04:34:12;100350.09;;;5.49;100.00
20145;BME280;10233;50.814;6.590;2022-12-07T04:35:13;100360.16;;;5.45;100.00
20145;BME280;10233;50.814;6.590;2022-12-07T04:36:13;100355.25;;;5.42;100.00
20145;BME280;10233;50.814;6.590;2022-12-07T04:37:14;100355.22;;;5.50;100.00
20145;BME280;10233;50.814;6.590;2022-12-07T04:38:14;100355.88;;;5.36;100.00
20145;BME280;10233;50.814;6.590;2022-12-07T04:39:21;100359.16;;;5.46;100.00
20145;BME280;10233;50.814;6.590;2022-12-07T04:40:22;100357.19;;;5.48;100.00
20145;BME280;10233;50.814;6.590;2022-12-07T04:41:23;100360.84;;;5.47;100.00
20145;BME280;10233;50.814;6.590;2022-12-07T04:42:27;100361.31;;;5.43;100.00
20145;BME280;10233;50.814;6.590;2022-12-07T04:43:27;100362.16;;;5.43;100.00
20145;BME280;10233;50.814;6.590;2022-12-07T04:44:28;100361.47;;;5.49;100.00
20145;BME280;10233;50.814;6.590;2022-12-07T04:45:29;100361.00;;;5.54;100.00
20145;BME280;10233;50.814;6.590;2022-12-07T04:46:31;100355.22;;;5.50;100.00
20145;BME280;10233;50.814;6.590;2022-12-07T04:47:31;100351.56;;;5.59;100.00
20145;BME280;10233;50.814;6.590;2022-12-07T04:48:32;100358.19;;;5.47;100.00
20145;BME280;10233;50.814;6.590;2022-12-07T04:49:33;100356.38;;;5.48;100.00
20145;BME280;10233;50.814;6.590;2022-12-07T04:50:35;100355.56;;;5.47;100.00
20145;BME280;10233;50.814;6.590;2022-12-07T04:51:35;100348.94;;;5.51;100.00
20145;BME280;10233;50.814;6.590;2022-12-07T04:52:37;100347.97;;;5.52;100.00
20145;BME280;10233;50.814;6.590;2022-12-07T04:53:37;100350.78;;;5.51;100.00
20145;BME280;10233;50.814;6.590;2022-12-07T04:54:37;100349.47;;;5.55;100.00
20145;BME280;10233;50.814;6.590;2022-12-07T04:55:38;100351.09;;;5.48;100.00
20145;BME280;10233;50.814;6.590;2022-12-07T04:56:38;100351.94;;;5.48;100.00
20145;BME280;10233;50.814;6.590;2022-12-07T04:57:39;100348.63;;;5.46;100.00
20145;BME280;10233;50.814;6.590;2022-12-07T04:58:39;100348.97;;;5.35;100.00
20145;BME280;10233;50.814;6.590;2022-12-07T04:59:40;100333.81;;;5.29;100.00
20145;BME280;10233;50.814;6.590;2022-12-07T05:00:40;100345.84;;;5.32;100.00
20145;BME280;10233;50.814;6.590;2022-12-07T05:01:41;100344.22;;;5.31;100.00
20145;BME280;10233;50.814;6.590;2022-12-07T05:02:41;100350.63;;;5.28;100.00
20145;BME280;10233;50.814;6.590;2022-12-07T05:03:42;100359.53;;;5.19;100.00
20145;BME280;10233;50.814;6.590;2022-12-07T05:04:42;100356.72;;;5.21;100.00
20145;BME280;10233;50.814;6.590;2022-12-07T05:05:43;100355.91;;;5.12;100.00
20145;BME280;10233;50.814;6.590;2022-12-07T05:06:44;100353.44;;;5.11;100.00
20145;BME280;10233;50.814;6.590;2022-12-07T05:07:44;100354.56;;;5.16;100.00
20145;BME280;10233;50.814;6.590;2022-12-07T05:08:45;100352.94;;;5.15;100.00
20145;BME280;10233;50.814;6.590;2022-12-07T05:09:45;100353.94;;;5.14;100.00
20145;BME280;10233;50.814;6.590;2022-12-07T05:10:46;100358.69;;;5.11;100.00
20145;BME280;10233;50.814;6.590;2022-12-07T05:11:48;100351.75;;;5.10;100.00
20145;BME280;10233;50.814;6.590;2022-12-07T05:12:49;100353.44;;;5.11;100.00
20145;BME280;10233;50.814;6.590;2022-12-07T05:13:49;100355.56;;;5.07;100.00
20145;BME280;10233;50.814;6.590;2022-12-07T05:14:50;100353.09;;;5.14;100.00
20145;BME280;10233;50.814;6.590;2022-12-07T05:15:50;100356.22;;;5.09;100.00
20145;BME280;10233;50.814;6.590;2022-12-07T05:16:51;100362.31;;;5.02;100.00
20145;BME280;10233;50.814;6.590;2022-12-07T05:17:53;100363.31;;;5.01;100.00
20145;BME280;10233;50.814;6.590;2022-12-07T05:18:54;100360.47;;;5.02;100.00
20145;BME280;10233;50.814;6.590;2022-12-07T05:19:55;100360.31;;;5.04;100.00
20145;BME280;10233;50.814;6.590;2022-12-07T05:20:55;100367.41;;;4.95;100.00
20145;BME280;10233;50.814;6.590;2022-12-07T05:21:55;100363.44;;;4.91;100.00
20145;BME280;10233;50.814;6.590;2022-12-07T05:22:56;100360.50;;;4.94;100.00
20145;BME280;10233;50.814;6.590;2022-12-07T05:23:58;100363.47;;;4.99;100.00
20145;BME280;10233;50.814;6.590;2022-12-07T05:24:59;100366.75;;;5.01;100.00
20145;BME280;10233;50.814;6.590;2022-12-07T05:25:59;100368.72;;;4.99;100.00
20145;BME280;10233;50.814;6.590;2022-12-07T05:26:59;100365.44;;;5.05;100.00
20145;BME280;10233;50.814;6.590;2022-12-07T05:28:00;100362.31;;;5.02;100.00
20145;BME280;10233;50.814;6.590;2022-12-07T05:29:00;100363.78;;;4.96;100.00
20145;BME280;10233;50.814;6.590;2022-12-07T05:30:01;100363.63;;;5.06;100.00
20145;BME280;10233;50.814;6.590;2022-12-07T05:31:01;100362.47;;;5.00;100.00
20145;BME280;10233;50.814;6.590;2022-12-07T05:32:02;100361.97;;;5.05;100.00
20145;BME280;10233;50.814;6.590;2022-12-07T05:33:02;100363.13;;;5.10;100.00
20145;BME280;10233;50.814;6.590;2022-12-07T05:34:03;100359.84;;;5.16;100.00
20145;BME280;10233;50.814;6.590;2022-12-07T05:35:04;100360.03;;;5.15;100.00
20145;BME280;10233;50.814;6.590;2022-12-07T05:36:05;100366.44;;;5.12;100.00
20145;BME280;10233;50.814;6.590;2022-12-07T05:37:07;100365.13;;;5.24;100.00
20145;BME280;10233;50.814;6.590;2022-12-07T05:38:08;100364.47;;;5.14;100.00
20145;BME280;10233;50.814;6.590;2022-12-07T05:39:08;100356.41;;;5.16;100.00
20145;BME280;10233;50.814;6.590;2022-12-07T05:40:09;100359.50;;;5.11;100.00
20145;BME280;10233;50.814;6.590;2022-12-07T05:41:13;100362.97;;;5.12;100.00
20145;BME280;10233;50.814;6.590;2022-12-07T05:42:34;100365.47;;;5.13;100.00
20145;BME280;10233;50.814;6.590;2022-12-07T05:43:35;100357.06;;;5.26;100.00
20145;BME280;10233;50.814;6.590;2022-12-07T05:44:35;100364.16;;;5.17;100.00
20145;BME280;10233;50.814;6.590;2022-12-07T05:45:36;100358.88;;;5.17;100.00
20145;BME280;10233;50.814;6.590;2022-12-07T05:46:38;100354.59;;;5.24;100.00
20145;BME280;10233;50.814;6.590;2022-12-07T05:47:39;100349.78;;;5.28;100.00
20145;BME280;10233;50.814;6.590;2022-12-07T05:48:39;100360.34;;;5.20;100.00
20145;BME280;10233;50.814;6.590;2022-12-07T05:49:39;100363.31;;;5.25;100.00
20145;BME280;10233;50.814;6.590;2022-12-07T05:50:40;100360.16;;;5.21;100.00
20145;BME280;10233;50.814;6.590;2022-12-07T05:51:41;100362.81;;;5.29;100.00
20145;BME280;10233;50.814;6.590;2022-12-07T05:52:42;100372.72;;;5.27;100.00
20145;BME280;10233;50.814;6.590;2022-12-07T05:53:43;100371.56;;;5.30;100.00
20145;BME280;10233;50.814;6.590;2022-12-07T05:54:43;100362.31;;;5.34;100.00
20145;BME280;10233;50.814;6.590;2022-12-07T05:55:44;100361.34;;;5.35;100.00
20145;BME280;10233;50.814;6.590;2022-12-07T05:56:44;100368.56;;;5.41;100.00
20145;BME280;10233;50.814;6.590;2022-12-07T05:57:45;100367.09;;;5.38;100.00
20145;BME280;10233;50.814;6.590;2022-12-07T05:59:05;100363.78;;;5.36;100.00